< < Back
Terminal Aerodrome Forecast


Current Version              Previous Versions:   1  2  3  4  5  6  7  8  9  

Terminal Aerodrome Forecast

812
FTUS42 KGSP 240500
TAFHKY
TAF
KHKY 240537Z 2406/2506 02004KT P6SM SKC
     FM241500 08005KT P6SM FEW190
     FM241700 15005KT P6SM FEW180
     FM250200 00000KT P6SM FEW250=



Latest METAR

500
SAUS70 KWBC 250000 RRD
MTRHKY
METAR KHKY 242353Z 18003KT 10SM CLR 19/03 A2997 RMK AO2 SLP136 T01940033
10217 20189 58004


USA.gov is the U.S. government's official web portal to all federal, state and local government web resources and services.